createdAt,value
2022-08-31T00:04:40.148Z,1010.48
2022-08-31T00:09:44.229Z,1010.49
2022-08-31T00:14:48.393Z,1010.46
2022-08-31T00:19:52.540Z,1010.57
2022-08-31T00:24:56.705Z,1010.57
2022-08-31T00:30:00.899Z,1010.49
2022-08-31T00:35:05.015Z,1010.56
2022-08-31T00:40:09.283Z,1010.59
2022-08-31T00:45:13.379Z,1010.56
2022-08-31T00:50:17.533Z,1010.49
2022-08-31T00:55:21.663Z,1010.50
2022-08-31T01:00:25.858Z,1010.51
2022-08-31T01:05:29.999Z,1010.60
2022-08-31T01:10:34.172Z,1010.62
2022-08-31T01:15:38.369Z,1010.63
2022-08-31T01:20:42.451Z,1010.65
2022-08-31T01:25:46.653Z,1010.69
2022-08-31T01:30:50.778Z,1010.65
2022-08-31T01:35:54.954Z,1010.76
2022-08-31T01:40:57.207Z,1010.76
2022-08-31T01:46:01.378Z,1010.72
2022-08-31T01:51:03.622Z,1010.73
2022-08-31T01:56:07.787Z,1010.65
2022-08-31T02:01:19.402Z,1010.67
2022-08-31T02:06:14.273Z,1010.72
2022-08-31T02:11:16.540Z,1010.75
2022-08-31T02:16:20.747Z,1010.68
2022-08-31T02:21:22.955Z,1010.64
2022-08-31T02:26:27.081Z,1010.63
2022-08-31T02:31:31.337Z,1010.65
2022-08-31T02:36:35.899Z,1010.67
2022-08-31T02:41:39.565Z,1010.64
2022-08-31T02:46:43.823Z,1010.64
2022-08-31T02:51:47.891Z,1010.58
2022-08-31T02:56:52.064Z,1010.68
2022-08-31T03:01:56.450Z,1010.59
2022-08-31T03:07:00.411Z,1010.58
2022-08-31T03:12:04.542Z,1010.54
2022-08-31T03:17:08.703Z,1010.65
2022-08-31T03:22:12.858Z,1010.67
2022-08-31T03:27:17.032Z,1010.57
2022-08-31T03:32:21.335Z,1010.66
2022-08-31T03:37:25.304Z,1010.65
2022-08-31T03:42:29.473Z,1010.54
2022-08-31T03:47:33.661Z,1010.57
2022-08-31T03:52:37.814Z,1010.63
2022-08-31T03:57:41.960Z,1010.55
2022-08-31T04:02:46.191Z,1010.64
2022-08-31T04:07:48.381Z,1010.58
2022-08-31T04:12:52.584Z,1010.55
2022-08-31T04:17:57.238Z,1010.55
2022-08-31T04:22:58.986Z,1010.54
2022-08-31T04:28:03.773Z,1010.53
2022-08-31T04:33:07.347Z,1010.61
2022-08-31T04:38:12.182Z,1010.57
2022-08-31T04:43:15.660Z,1010.55
2022-08-31T04:48:19.809Z,1010.73
2022-08-31T04:53:23.936Z,1010.68
2022-08-31T04:58:28.109Z,1010.71
2022-08-31T05:03:32.290Z,1010.68
2022-08-31T05:08:36.438Z,1010.71
2022-08-31T05:13:40.590Z,1010.79
2022-08-31T05:18:44.779Z,1010.77
2022-08-31T05:23:48.896Z,1010.82
2022-08-31T05:28:53.109Z,1010.81
2022-08-31T05:33:57.247Z,1010.85
2022-08-31T05:39:01.589Z,1010.86
2022-08-31T05:44:05.531Z,1010.88
2022-08-31T05:49:11.707Z,1010.86
2022-08-31T05:54:13.884Z,1010.90
2022-08-31T05:59:18.021Z,1010.93
2022-08-31T06:04:20.407Z,1010.97
2022-08-31T06:09:24.451Z,1010.99
2022-08-31T06:14:26.730Z,1010.96
2022-08-31T06:19:30.894Z,1010.98
2022-08-31T06:24:35.050Z,1011.03
2022-08-31T06:29:39.238Z,1011.00
2022-08-31T06:34:43.357Z,1011.01
2022-08-31T06:39:47.549Z,1011.09
2022-08-31T06:44:51.716Z,1011.12
2022-08-31T06:49:55.857Z,1011.17
2022-08-31T06:55:00.001Z,1011.22
2022-08-31T07:00:02.337Z,1011.12
2022-08-31T07:05:06.431Z,1011.33
2022-08-31T07:10:10.615Z,1011.31
2022-08-31T07:15:14.779Z,1011.39
2022-08-31T07:20:18.930Z,1011.39
2022-08-31T07:25:23.104Z,1011.38
2022-08-31T07:30:29.066Z,1011.34
2022-08-31T07:35:31.373Z,1011.40
2022-08-31T07:40:35.599Z,1011.39
2022-08-31T07:45:39.826Z,1011.36
2022-08-31T07:50:43.889Z,1011.37
2022-08-31T07:55:48.033Z,1011.34
2022-08-31T08:00:50.301Z,1011.40
2022-08-31T08:05:54.497Z,1011.56
2022-08-31T08:10:56.748Z,1011.54
2022-08-31T08:16:01.081Z,1011.63
2022-08-31T08:21:05.296Z,1011.60
2022-08-31T08:26:09.653Z,1011.59
2022-08-31T08:31:13.465Z,1011.57
2022-08-31T08:36:17.510Z,1011.57
2022-08-31T08:41:21.749Z,1011.53
2022-08-31T08:46:34.778Z,1011.55
2022-08-31T08:51:30.009Z,1011.59
2022-08-31T08:56:34.384Z,1011.67
2022-08-31T09:01:38.433Z,1011.62
2022-08-31T09:06:45.358Z,1011.68
2022-08-31T09:11:46.658Z,1011.71
2022-08-31T09:16:50.818Z,1011.66
2022-08-31T09:21:54.946Z,1011.72
2022-08-31T09:26:59.142Z,1011.62
2022-08-31T09:32:06.249Z,1011.61
2022-08-31T09:37:07.430Z,1011.58
2022-08-31T09:42:11.597Z,1011.53
2022-08-31T09:47:15.738Z,1011.55
2022-08-31T09:52:19.907Z,1011.55
2022-08-31T09:57:22.192Z,1011.51
2022-08-31T10:02:26.335Z,1011.44
2022-08-31T10:07:30.486Z,1011.49
2022-08-31T10:12:34.750Z,1011.40
2022-08-31T10:17:38.866Z,1011.48
2022-08-31T10:22:42.960Z,1011.42
2022-08-31T10:27:47.116Z,1011.45
2022-08-31T10:32:51.323Z,1011.51
2022-08-31T10:37:55.483Z,1011.39
2022-08-31T10:42:59.597Z,1011.43
2022-08-31T10:48:03.770Z,1011.50
2022-08-31T10:53:07.950Z,1011.42
2022-08-31T10:58:12.101Z,1011.45
2022-08-31T11:03:16.238Z,1011.50
2022-08-31T11:08:20.433Z,1011.49
2022-08-31T11:13:24.580Z,1011.50
2022-08-31T11:18:28.720Z,1011.49
2022-08-31T11:23:32.903Z,1011.44
2022-08-31T11:28:37.050Z,1011.45
2022-08-31T11:33:55.296Z,1011.43
2022-08-31T11:38:45.371Z,1011.40
2022-08-31T11:43:47.658Z,1011.42
2022-08-31T11:48:51.821Z,1011.35
2022-08-31T11:53:54.055Z,1011.33
2022-08-31T11:58:58.224Z,1011.23
2022-08-31T12:04:02.397Z,1011.29
2022-08-31T12:09:06.546Z,1011.21
2022-08-31T12:14:10.715Z,1011.14
2022-08-31T12:19:14.853Z,1011.07
2022-08-31T12:24:19.101Z,1011.12
2022-08-31T12:29:23.148Z,1011.07
2022-08-31T12:34:27.352Z,1011.05
2022-08-31T12:39:31.528Z,1011.10
2022-08-31T12:44:35.639Z,1011.11
2022-08-31T12:49:39.819Z,1011.09
2022-08-31T12:54:42.065Z,1011.08
2022-08-31T13:00:00.574Z,1011.01
2022-08-31T13:04:48.483Z,1010.90
2022-08-31T13:09:52.662Z,1010.86
2022-08-31T13:14:56.804Z,1010.91
2022-08-31T13:19:59.074Z,1010.89
2022-08-31T13:25:03.233Z,1010.84
2022-08-31T13:30:07.470Z,1010.71
2022-08-31T13:40:15.751Z,1010.59
2022-08-31T13:50:24.062Z,1010.65
2022-08-31T13:55:30.195Z,1010.60
2022-08-31T14:00:32.333Z,1010.54
2022-08-31T14:05:36.567Z,1010.59
2022-08-31T14:10:40.755Z,1010.61
2022-08-31T14:15:44.971Z,1010.55
2022-08-31T14:21:10.215Z,1010.57
2022-08-31T14:25:51.266Z,1010.44
2022-08-31T14:31:02.480Z,1010.47
2022-08-31T14:36:13.624Z,1010.44
2022-08-31T14:41:24.751Z,1010.38
2022-08-31T14:46:35.946Z,1010.24
2022-08-31T14:51:47.096Z,1010.23
2022-08-31T14:56:56.365Z,1010.18
2022-08-31T15:02:00.624Z,1010.18
2022-08-31T15:07:09.470Z,1010.18
2022-08-31T15:12:08.836Z,1010.20
2022-08-31T15:17:19.496Z,1010.22
2022-08-31T15:22:17.181Z,1010.14
2022-08-31T15:27:21.317Z,1010.12
2022-08-31T15:32:25.496Z,1010.19
2022-08-31T15:37:32.194Z,1010.13
2022-08-31T15:42:33.783Z,1010.11
2022-08-31T15:47:37.946Z,1010.11
2022-08-31T15:52:42.161Z,1010.12
2022-08-31T15:57:46.303Z,1010.02
2022-08-31T16:02:50.443Z,1009.95
2022-08-31T16:07:54.619Z,1010.00
2022-08-31T16:12:58.762Z,1009.86
2022-08-31T16:18:02.940Z,1009.89
2022-08-31T16:23:07.085Z,1009.90
2022-08-31T16:28:11.280Z,1009.85
2022-08-31T16:33:15.592Z,1009.87
2022-08-31T16:38:19.712Z,1009.80
2022-08-31T16:43:21.793Z,1009.84
2022-08-31T16:48:26.002Z,1009.95
2022-08-31T16:53:30.144Z,1010.03
2022-08-31T16:58:51.174Z,1009.93
2022-08-31T17:03:38.445Z,1010.02
2022-08-31T17:08:42.588Z,1010.05
2022-08-31T17:13:46.770Z,1010.11
2022-08-31T17:18:50.938Z,1010.07
2022-08-31T17:23:55.108Z,1010.06
2022-08-31T17:28:59.257Z,1010.17
2022-08-31T17:34:03.400Z,1010.12
2022-08-31T17:39:07.558Z,1010.11
2022-08-31T17:44:11.697Z,1010.09
2022-08-31T17:49:15.869Z,1010.22
2022-08-31T17:54:20.034Z,1010.28
2022-08-31T17:59:24.165Z,1010.27
2022-08-31T18:04:28.471Z,1010.33
2022-08-31T18:09:32.522Z,1010.33
2022-08-31T18:14:36.656Z,1010.44
2022-08-31T18:24:44.973Z,1010.52
2022-08-31T18:29:49.155Z,1010.56
2022-08-31T18:34:55.307Z,1010.59
2022-08-31T18:39:59.886Z,1010.71
2022-08-31T18:44:57.870Z,1010.70
2022-08-31T18:50:02.013Z,1010.77
2022-08-31T18:55:06.180Z,1010.77
2022-08-31T19:00:10.324Z,1010.83
2022-08-31T19:05:14.624Z,1010.86
2022-08-31T19:10:18.640Z,1010.97
2022-08-31T19:15:25.468Z,1010.91
2022-08-31T19:20:26.993Z,1011.03
2022-08-31T19:30:35.346Z,1011.03
2022-08-31T19:35:39.446Z,1011.12
2022-08-31T19:40:43.671Z,1011.17
2022-08-31T19:45:47.778Z,1011.13
2022-08-31T19:50:51.896Z,1011.18
2022-08-31T19:55:56.098Z,1011.13
2022-08-31T20:01:01.500Z,1011.15
2022-08-31T20:06:04.408Z,1011.10
2022-08-31T20:11:08.540Z,1011.14
2022-08-31T20:16:12.749Z,1011.15
2022-08-31T20:26:21.052Z,1011.17
2022-08-31T20:31:23.379Z,1011.19
2022-08-31T20:36:36.461Z,1011.17
2022-08-31T20:41:52.927Z,1011.18
2022-08-31T20:46:56.884Z,1011.15
2022-08-31T20:52:07.939Z,1011.21
2022-08-31T20:57:19.119Z,1011.20
2022-08-31T21:02:30.379Z,1011.26
2022-08-31T21:07:32.576Z,1011.16
2022-08-31T21:12:36.737Z,1011.26
2022-08-31T21:17:40.881Z,1011.27
2022-08-31T21:22:45.059Z,1011.14
2022-08-31T21:27:49.182Z,1011.22
2022-08-31T21:32:53.334Z,1011.22
2022-08-31T21:37:57.524Z,1011.21
2022-08-31T21:43:01.671Z,1011.19
2022-08-31T21:48:05.857Z,1011.11
2022-08-31T21:53:10.016Z,1011.10
2022-08-31T21:58:14.158Z,1011.05
2022-08-31T22:03:18.315Z,1011.15
2022-08-31T22:08:22.451Z,1011.24
2022-08-31T22:13:26.646Z,1011.14
2022-08-31T22:19:00.136Z,1011.17
2022-08-31T22:23:34.950Z,1011.11
2022-08-31T22:28:39.097Z,1011.11
2022-08-31T22:33:47.484Z,1011.21
2022-08-31T22:38:47.420Z,1011.15
2022-08-31T22:43:51.579Z,1011.16
2022-08-31T22:48:55.757Z,1011.11
2022-08-31T22:53:58.009Z,1011.17
2022-08-31T22:59:02.197Z,1011.12
2022-08-31T23:04:06.527Z,1011.11
2022-08-31T23:09:08.615Z,1011.12
2022-08-31T23:14:12.750Z,1011.15
2022-08-31T23:19:16.915Z,1011.11
2022-08-31T23:24:21.106Z,1011.10
2022-08-31T23:29:25.250Z,1011.02
2022-08-31T23:34:29.460Z,1010.96
2022-08-31T23:39:33.551Z,1010.96
2022-08-31T23:44:37.712Z,1010.94
2022-08-31T23:49:41.875Z,1010.95
2022-08-31T23:54:46.023Z,1010.83
2022-08-31T23:59:52.354Z,1010.83
